Time;durP1;ratioP1;P1;durP2;ratioP2;P2;SDS_P1;SDS_P2;PMS_P1;PMS_P2;Temp;Humidity;BMP_temperature;BMP_pressure;BME280_temperature;BME280_humidity;BME280_pressure;Samples;Min_cycle;Max_cycle;Signal;HPM_P1;HPM_P2
2021/12/21 00:03:31;;;;;;;2.53;1.02;;;;;;;14.05;48.52;102473.25;19741736;30;20056;-77
2021/12/21 00:23:39;;;;;;;2.38;1.40;;;;;;;14.16;48.36;102478.13;19741528;30;20062;-76
2021/12/21 00:33:45;;;;;;;1.75;1.27;;;;;;;14.14;48.45;102474.59;19754713;30;20064;-76
2021/12/21 00:43:47;;;;;;;;;;;;;;;14.14;48.40;102467.47;19725513;30;20174;-76
2021/12/21 00:53:49;;;;;;;1.50;1.10;;;;;;;13.95;48.28;102431.81;19738365;30;19925;-76
2021/12/21 01:03:53;;;;;;;1.75;1.10;;;;;;;13.93;47.86;102437.22;19738692;30;20060;-76
2021/12/21 01:34:32;;;;;;;1.10;0.88;;;;;;;14.03;47.57;102449.22;19736955;30;20064;-76
2021/12/21 01:54:42;;;;;;;2.33;1.20;;;;;;;13.71;47.65;102386.50;19735860;30;20052;-76
2021/12/21 02:04:44;;;;;;;1.80;0.93;;;;;;;14.05;47.50;102468.75;19749785;30;20055;-76
2021/12/21 02:14:53;;;;;;;2.10;1.00;;;;;;;14.05;47.45;102433.09;19748718;30;20099;-76
2021/12/21 02:34:59;;;;;;;1.52;0.90;;;;;;;12.41;46.91;102171.34;19733214;30;20190;-76
2021/12/21 02:45:05;;;;;;;2.25;1.00;;;;;;;14.11;47.37;102421.19;19734030;30;20052;-77
2021/12/21 02:55:07;;;;;;;2.37;1.00;;;;;;;14.10;47.09;102432.84;19710888;30;20059;-76
2021/12/21 03:05:09;;;;;;;0.95;0.80;;;;;;;13.95;47.07;102392.50;19745981;30;20062;-76
2021/12/21 03:15:11;;;;;;;1.63;0.95;;;;;;;14.06;46.92;102411.56;19746822;30;20491;-76
2021/12/21 03:25:14;;;;;;;2.40;1.10;;;;;;;13.89;46.94;102384.75;19744492;30;20147;-76
2021/12/21 03:35:15;;;;;;;2.25;1.00;;;;;;;14.04;46.76;102400.06;19743716;30;20121;-76
2021/12/21 03:45:18;;;;;;;2.33;1.10;;;;;;;14.03;46.98;102405.53;19757953;30;20070;-76
2021/12/21 03:55:20;;;;;;;1.67;0.90;;;;;;;13.81;46.65;102376.22;19742845;30;20055;-76
2021/12/21 04:05:21;;;;;;;2.05;1.10;;;;;;;13.45;46.71;102303.84;19742520;30;20048;-77
2021/12/21 04:15:27;;;;;;;2.63;1.23;;;;;;;13.52;46.64;102314.25;19740854;30;20151;-76
2021/12/21 04:25:29;;;;;;;;;;;;;;;14.01;46.32;102375.28;19741852;30;20052;-76
2021/12/21 04:35:31;;;;;;;1.73;1.00;;;;;;;14.00;46.34;102382.41;19724808;30;19929;-76
2021/12/21 04:45:33;;;;;;;1.95;1.10;;;;;;;13.97;46.57;102390.59;19753874;30;20056;-76
2021/12/21 04:55:35;;;;;;;2.13;1.20;;;;;;;14.04;46.13;102372.44;19738677;30;20434;-76
2021/12/21 05:05:37;;;;;;;1.95;1.13;;;;;;;14.18;46.12;102363.75;19752454;30;20056;-75
2021/12/21 05:15:39;;;;;;;4.18;1.17;;;;;;;14.49;46.24;102372.91;19737069;30;20063;-76
2021/12/21 05:25:41;;;;;;;2.20;1.17;;;;;;;14.67;45.72;102371.09;19737373;30;20068;-76
2021/12/21 05:35:43;;;;;;;1.95;1.10;;;;;;;15.02;45.68;102370.22;19750335;30;20062;-77
2021/12/21 05:45:45;;;;;;;1.50;1.08;;;;;;;15.26;45.67;102375.22;19737703;30;20059;-76
2021/12/21 05:55:47;;;;;;;2.08;0.93;;;;;;;14.78;45.33;102284.78;19736309;30;20507;-75
2021/12/21 06:05:48;;;;;;;1.40;0.88;;;;;;;15.38;44.79;102374.56;19734104;30;20410;-76
2021/12/21 06:26:02;;;;;;;4.57;1.13;;;;;;;15.50;45.30;102378.41;19737846;30;20067;-73
2021/12/21 06:36:04;;;;;;;1.67;1.00;;;;;;;15.46;45.35;102347.31;19749275;30;20063;-74
2021/12/21 06:46:14;;;;;;;1.70;1.13;;;;;;;15.66;45.52;102379.28;19747296;30;20441;-76
2021/12/21 06:56:17;;;;;;;2.17;1.08;;;;;;;15.72;45.55;102377.22;19761624;30;20459;-75
2021/12/21 07:06:19;;;;;;;1.33;1.00;;;;;;;15.78;45.25;102387.63;19747071;30;20067;-74
2021/12/21 07:26:42;;;;;;;4.13;1.20;;;;;;;15.57;45.42;102362.84;19744794;30;20078;-74
2021/12/21 07:36:45;;;;;;;1.67;1.05;;;;;;;15.89;44.64;102393.28;19744494;30;20066;-73
2021/12/21 07:46:47;;;;;;;1.38;1.00;;;;;;;15.14;44.50;102273.00;19744207;30;20059;-76
2021/12/21 07:56:49;;;;;;;2.85;1.00;;;;;;;15.41;44.60;102335.97;19743774;30;20083;-76
2021/12/21 08:06:51;;;;;;;1.63;1.00;;;;;;;15.63;44.87;102400.06;19742930;30;20142;-76
2021/12/21 08:16:53;;;;;;;2.88;1.38;;;;;;;15.09;44.70;102374.34;19741346;30;20052;-76
2021/12/21 08:26:59;;;;;;;2.63;1.55;;;;;;;15.47;44.69;102408.97;19740480;30;20058;-76
2021/12/21 08:37:02;;;;;;;2.72;1.60;;;;;;;15.34;44.54;102383.72;19724912;30;20064;-74
2021/12/21 08:47:04;;;;;;;2.90;1.70;;;;;;;14.97;44.98;102324.00;19724098;30;20063;-75
2021/12/21 08:57:06;;;;;;;2.20;1.40;;;;;;;15.01;44.63;102328.25;19738778;30;20075;-75
2021/12/21 09:07:08;;;;;;;2.67;1.67;;;;;;;15.33;44.57;102387.38;19738616;30;20060;-74
2021/12/21 09:17:10;;;;;;;2.47;1.40;;;;;;;15.36;44.66;102381.84;19737950;30;20067;-75
2021/12/21 09:27:12;;;;;;;1.73;1.50;;;;;;;15.37;44.35;102386.25;19737360;30;20479;-74
2021/12/21 09:37:17;;;;;;;3.38;1.73;;;;;;;15.43;44.53;102403.84;19706619;30;20507;-74
2021/12/21 09:47:19;;;;;;;2.87;1.57;;;;;;;15.45;44.33;102408.16;19735342;30;20058;-74
2021/12/21 09:57:21;;;;;;;1.90;1.45;;;;;;;15.46;44.43;102404.53;19735734;30;20117;-74
2021/12/21 10:07:24;;;;;;;1.77;1.30;;;;;;;14.92;44.28;102309.03;19735811;30;20395;-74
2021/12/21 10:17:32;;;;;;;2.80;1.73;;;;;;;15.58;44.33;102408.38;19719214;30;20066;-74
2021/12/21 10:27:42;;;;;;;3.50;1.73;;;;;;;15.62;44.59;102409.94;19748824;30;20059;-72
2021/12/21 10:37:49;;;;;;;2.42;1.63;;;;;;;15.63;44.37;102417.03;19748352;30;20426;-73
2021/12/21 10:47:51;;;;;;;2.13;1.65;;;;;;;15.67;44.27;102390.91;19718480;30;20476;-73
2021/12/21 10:58:20;;;;;;;3.50;1.83;;;;;;;15.45;44.57;102349.13;19717851;30;20094;-73
2021/12/21 11:08:24;;;;;;;3.03;1.83;;;;;;;15.72;44.55;102377.22;19716542;30;20099;-73
2021/12/21 11:18:27;;;;;;;3.28;1.80;;;;;;;15.34;45.17;102306.78;19742153;30;20134;-73
2021/12/21 11:28:35;;;;;;;2.58;1.60;;;;;;;15.73;45.21;102352.09;19744437;30;20059;-73
2021/12/21 11:38:38;;;;;;;2.95;1.83;;;;;;;15.61;45.52;102321.44;19729257;30;20066;-73
2021/12/21 11:48:48;;;;;;;4.90;1.98;;;;;;;15.76;45.11;102335.81;19744282;30;20125;-72
2021/12/21 11:58:53;;;;;;;1.98;1.60;;;;;;;15.00;45.87;102197.78;19727889;30;20081;-71
2021/12/21 12:09:01;;;;;;;2.53;1.70;;;;;;;15.72;46.03;102326.22;19741689;30;20121;-70
2021/12/21 12:19:10;;;;;;;2.95;1.73;;;;;;;15.80;46.20;102308.69;19741427;30;20388;-73
2021/12/21 12:29:19;;;;;;;1.98;1.50;;;;;;;15.85;46.41;102316.50;19741291;30;20063;-70
2021/12/21 12:39:39;;;;;;;4.00;2.03;;;;;;;15.83;46.32;102282.59;19739851;30;20056;-72
2021/12/21 12:49:48;;;;;;;2.85;1.70;;;;;;;15.81;45.84;102226.31;19739337;30;20177;-71
2021/12/21 12:59:54;;;;;;;4.00;3.03;;;;;;;18.46;41.85;102312.91;19739564;30;20055;-71
2021/12/21 13:10:10;;;;;;;2.90;1.58;;;;;;;18.47;41.06;102303.84;19738907;30;20436;-71
2021/12/21 13:20:23;;;;;;;2.75;1.73;;;;;;;19.90;37.80;102251.34;19737102;30;20067;-72
2021/12/21 13:30:25;;;;;;;3.50;1.70;;;;;;;17.83;41.33;102278.44;19737370;30;20066;-71
2021/12/21 13:40:30;;;;;;;3.47;1.65;;;;;;;16.49;43.51;102208.84;19720325;30;20063;-71
2021/12/21 13:50:33;;;;;;;2.67;1.60;;;;;;;16.21;44.84;102284.91;19736620;30;20564;-74
2021/12/21 14:00:44;;;;;;;3.00;1.70;;;;;;;15.45;45.47;102209.56;19719889;30;20063;-71
2021/12/21 14:10:51;;;;;;;3.72;1.67;;;;;;;15.40;46.15;102270.69;19734285;30;20171;-72
2021/12/21 14:21:05;;;;;;;4.72;1.92;;;;;;;14.35;46.50;102119.94;19735453;30;20512;-71
2021/12/21 14:31:08;;;;;;;3.88;1.77;;;;;;;15.30;46.05;102278.41;19718840;30;20071;-71
2021/12/21 14:41:10;;;;;;;3.75;1.85;;;;;;;15.03;45.82;102240.56;19733267;30;20121;-71
2021/12/21 14:51:13;;;;;;;4.18;1.60;;;;;;;15.17;45.97;102266.59;19742949;30;20043;-72
2021/12/21 15:01:16;;;;;;;4.45;2.08;;;;;;;14.89;45.49;102223.41;19748905;30;20052;-73
2021/12/21 15:11:24;;;;;;;3.42;1.98;;;;;;;15.36;45.82;102293.28;19746913;30;20121;-71
2021/12/21 15:21:25;;;;;;;2.58;1.70;;;;;;;15.43;46.08;102309.91;19747690;30;20573;-72
2021/12/21 15:31:27;;;;;;;3.10;1.67;;;;;;;15.37;45.96;102292.31;19759196;30;20059;-73
2021/12/21 15:41:29;;;;;;;3.33;1.73;;;;;;;15.51;45.67;102316.59;19746088;30;20060;-73
2021/12/21 15:51:31;;;;;;;3.05;1.98;;;;;;;15.40;45.75;102308.25;19743149;30;20087;-73
2021/12/21 16:01:34;;;;;;;2.83;1.70;;;;;;;15.41;46.15;102303.75;19743188;30;20117;-73
2021/12/21 16:11:36;;;;;;;3.72;2.10;;;;;;;15.38;45.49;102304.78;19741534;30;20067;-73
2021/12/21 16:21:38;;;;;;;3.95;2.20;;;;;;;15.57;45.70;102319.88;19742451;30;20063;-73
2021/12/21 16:32:00;;;;;;;2.95;2.00;;;;;;;14.67;45.76;102158.47;19741184;30;20056;-73
2021/12/21 16:42:04;;;;;;;3.15;1.95;;;;;;;15.54;45.60;102301.28;19754260;30;20052;-73
2021/12/21 16:52:06;;;;;;;3.10;2.00;;;;;;;15.22;45.82;102251.09;19724082;30;20064;-73
2021/12/21 17:02:08;;;;;;;2.78;1.63;;;;;;;15.59;45.37;102313.47;19739281;30;20051;-73
2021/12/21 17:12:09;;;;;;;3.35;2.00;;;;;;;15.41;45.36;102272.41;19737647;30;20055;-73
2021/12/21 17:22:11;;;;;;;3.70;2.00;;;;;;;15.22;45.16;102251.09;19737891;30;20084;-73
2021/12/21 17:32:13;;;;;;;4.97;2.15;;;;;;;15.17;45.37;102243.34;19736067;30;20488;-73
2021/12/21 17:42:15;;;;;;;3.13;2.00;;;;;;;15.62;45.21;102325.84;19735688;30;20494;-73
2021/12/21 17:52:20;;;;;;;5.15;2.30;;;;;;;15.62;45.04;102328.53;19736695;30;20051;-73
2021/12/21 18:02:23;;;;;;;3.90;2.10;;;;;;;15.61;45.06;102324.13;19735797;30;20469;-73
2021/12/21 18:12:25;;;;;;;4.07;2.08;;;;;;;15.57;45.30;102314.50;19733835;30;20056;-73
2021/12/21 18:22:27;;;;;;;4.50;2.05;;;;;;;15.25;44.96;102252.78;19737983;30;20067;-73
2021/12/21 18:32:30;;;;;;;3.47;2.00;;;;;;;15.21;45.10;102246.69;19749673;30;20091;-73
2021/12/21 18:42:31;;;;;;;2.35;1.80;;;;;;;15.64;45.16;102318.59;19749016;30;20067;-72
2021/12/21 18:52:34;;;;;;;3.00;1.77;;;;;;;15.27;44.69;102261.59;19748329;30;20066;-72
2021/12/21 19:02:42;;;;;;;3.35;2.08;;;;;;;15.12;44.57;102245.41;19747645;30;20067;-73
2021/12/21 19:12:45;;;;;;;4.40;1.90;;;;;;;15.31;44.66;102306.09;19745975;30;20052;-74
2021/12/21 19:22:47;;;;;;;3.30;2.20;;;;;;;13.75;44.88;102066.91;19745020;30;20099;-73
2021/12/21 19:32:49;;;;;;;4.50;2.25;;;;;;;14.94;45.01;102280.31;19758418;30;20047;-73
2021/12/21 19:42:51;;;;;;;2.65;1.90;;;;;;;14.97;45.24;102313.28;19745030;30;20064;-73
2021/12/21 19:52:55;;;;;;;4.97;2.25;;;;;;;14.69;45.28;102307.53;19744290;30;20499;-73
2021/12/21 20:02:57;;;;;;;3.45;2.03;;;;;;;14.36;45.51;102252.06;19727617;30;20063;-73
2021/12/21 20:13:05;;;;;;;3.90;2.47;;;;;;;14.46;45.56;102311.41;19726969;30;20060;-73
2021/12/21 20:23:07;;;;;;;4.43;2.50;;;;;;;14.19;45.82;102272.56;19726688;30;20542;-73
2021/12/21 20:33:11;;;;;;;4.68;2.50;;;;;;;13.85;45.75;102244.81;19755327;30;20063;-73
2021/12/21 20:43:17;;;;;;;5.68;2.53;;;;;;;14.00;46.19;102299.41;19739555;30;20487;-73
2021/12/21 20:53:20;;;;;;;4.82;2.47;;;;;;;13.56;45.86;102235.56;19724853;30;20062;-73
2021/12/21 21:03:30;;;;;;;3.83;2.67;;;;;;;13.81;46.44;102303.94;19724491;30;20105;-72
2021/12/21 21:13:32;;;;;;;4.35;2.40;;;;;;;13.87;46.26;102317.03;19737590;30;20059;-72
2021/12/21 21:23:37;;;;;;;3.55;2.75;;;;;;;13.70;45.59;102297.31;19737768;30;20044;-72
2021/12/21 21:33:39;;;;;;;5.70;3.10;;;;;;;13.82;45.75;102300.34;19737714;30;20052;-72
2021/12/21 21:43:41;;;;;;;6.00;3.03;;;;;;;13.81;45.84;102301.28;19736809;30;20071;-73
2021/12/21 21:53:45;;;;;;;5.53;3.13;;;;;;;13.77;45.69;102306.78;19736442;30;20063;-72
2021/12/21 22:03:48;;;;;;;4.75;3.40;;;;;;;13.80;45.43;102295.03;19720613;30;20495;-73
2021/12/21 22:13:50;;;;;;;3.78;2.80;;;;;;;13.69;45.42;102274.16;19719601;30;20158;-72
2021/12/21 22:23:52;;;;;;;4.55;3.28;;;;;;;13.55;45.46;102255.22;19735428;30;20063;-73
2021/12/21 22:33:57;;;;;;;4.88;2.78;;;;;;;13.70;45.39;102308.03;19734099;30;20458;-72
2021/12/21 22:43:59;;;;;;;5.03;3.22;;;;;;;13.79;45.44;102301.34;19734135;30;20056;-73
2021/12/21 22:54:01;;;;;;;5.15;2.90;;;;;;;13.76;45.48;102297.03;19733216;30;20068;-73
2021/12/21 23:04:04;;;;;;;5.15;3.08;;;;;;;13.82;44.98;102290.47;19733577;30;20052;-73
2021/12/21 23:14:06;;;;;;;3.88;2.95;;;;;;;13.82;44.88;102279.78;19757086;29;20475;-73
2021/12/21 23:24:09;;;;;;;3.90;2.95;;;;;;;13.84;45.05;102298.44;19746588;30;20113;-73
2021/12/21 23:34:10;;;;;;;6.50;3.58;;;;;;;13.73;44.88;102280.22;19745972;30;20425;-73
2021/12/21 23:44:13;;;;;;;5.50;3.40;;;;;;;13.79;44.88;102277.25;19759228;30;20052;-73
2021/12/21 23:54:16;;;;;;;4.93;3.03;;;;;;;13.57;44.81;102256.91;19744363;30;20060;-73
